Etusivu
METAR-TAF:

METAR-TAF

Lentoasemat :

Tucson, Arizona, Yhdysvallat

Leveyspiiri: 32-24-34N, Pituuspiiri: 111-13-06W, korkeus merenpinnasta: 619 m

Tämänhetkinen sää

Tämä raportti tehtiin 26 minuuttia sitten, kello 22.15 UTC
Tuuli 5 kn lännestä/luoteesta
Lämpötila 21°C
Kosteus 16%
Ilmanpaine 1016 hPa
Näkyvyys: 16.1 km
selkeää

METAR: KAVQ 162215Z AUTO 29005KT 10SM CLR 21/M06 A3001 RMK AO2 T02121057

Aika: 15:41 (22:41 UTC)


TAF: puuttuu

Säähavainnot ja -ennusteet yli 4000 lentoasemalta (METAR- ja TAF-raportit).

Käytössä olevat sääasemat on merkitty karttaan keltaisilla ja punaisilla pisteillä.

Aseta hiiri pisteen päälle nähdäksesi sääaseman nimen.

Klikkaa sitten nähdäksesi säähavainnot ja -ennusteet.

Kartan vaihtaminen: klikkaa mustalla rastilla varustettuja vihreitä pisteitä, niin voit zoomata sisään; viivalla varustettua vihreää pistettä, niin voit zoomata ulos tai vihreitä nuolia, niin pääset viereisille kartoille.


METAR-TAF: